Time;durP1;ratioP1;P1;durP2;ratioP2;P2;SDS_P1;SDS_P2;PMS_P1;PMS_P2;Temp;Humidity;BMP_temperature;BMP_pressure;BME280_temperature;BME280_humidity;BME280_pressure;Samples;Min_cycle;Max_cycle;Signal;HPM_P1;HPM_P2
2021/05/07 00:00:32;;;;;;;16.00;3.80;;;4.90;99.90;;;;;;5090817;28;20181;-56
2021/05/07 00:02:59;;;;;;;7.25;3.38;;;4.90;99.90;;;;;;5091612;28;20173;-56
2021/05/07 00:05:25;;;;;;;6.65;3.72;;;4.90;99.90;;;;;;5090740;28;20177;-55
2021/05/07 00:07:51;;;;;;;5.18;2.60;;;4.90;99.90;;;;;;5091613;28;20209;-56
2021/05/07 00:10:17;;;;;;;7.00;2.65;;;4.80;99.90;;;;;;5091734;28;20653;-57
2021/05/07 00:12:44;;;;;;;4.70;2.70;;;4.80;99.90;;;;;;5090286;28;20549;-57
2021/05/07 00:15:10;;;;;;;5.10;2.80;;;4.80;99.90;;;;;;5091620;28;20170;-57
2021/05/07 00:17:36;;;;;;;8.43;4.22;;;4.80;99.90;;;;;;5090450;28;20637;-57
2021/05/07 00:20:04;;;;;;;5.57;2.13;;;4.80;99.90;;;;;;5091056;28;20181;-57
2021/05/07 00:22:30;;;;;;;9.50;4.38;;;4.80;99.90;;;;;;5089353;28;20212;-56
2021/05/07 00:24:56;;;;;;;9.07;4.93;;;4.80;99.90;;;;;;5089888;28;20173;-56
2021/05/07 00:27:22;;;;;;;9.95;3.90;;;4.70;99.90;;;;;;5090345;28;20696;-57
2021/05/07 00:29:48;;;;;;;7.88;2.95;;;4.70;99.90;;;;;;5093330;28;20181;-57
2021/05/07 00:32:14;;;;;;;7.03;2.78;;;4.70;99.90;;;;;;5094875;28;20544;-57
2021/05/07 00:34:40;;;;;;;7.90;2.72;;;4.70;99.90;;;;;;5094062;28;20231;-57
2021/05/07 00:37:07;;;;;;;5.45;2.72;;;4.60;99.90;;;;;;5095308;28;20180;-57
2021/05/07 00:39:33;;;;;;;5.93;3.38;;;4.60;99.90;;;;;;5094768;28;20638;-56
2021/05/07 00:42:03;;;;;;;6.70;2.95;;;4.60;99.90;;;;;;5095315;28;20196;-57
2021/05/07 00:44:32;;;;;;;11.60;4.10;;;4.60;99.90;;;;;;5092911;28;20181;-57
2021/05/07 00:47:04;;;;;;;6.85;4.20;;;4.50;99.90;;;;;;5094698;28;20201;-56
2021/05/07 00:49:34;;;;;;;7.63;3.10;;;4.60;99.90;;;;;;5092602;28;20172;-57
2021/05/07 00:52:01;;;;;;;5.78;2.65;;;4.50;99.90;;;;;;5090721;28;20184;-56
2021/05/07 00:54:28;;;;;;;5.20;2.70;;;4.50;99.90;;;;;;5092468;28;20177;-57
2021/05/07 00:56:54;;;;;;;8.07;4.47;;;4.40;99.90;;;;;;5094808;28;20649;-56
2021/05/07 00:59:20;;;;;;;6.50;2.72;;;4.50;99.90;;;;;;5094731;28;20174;-56
2021/05/07 01:01:48;;;;;;;3.95;2.65;;;4.40;99.90;;;;;;5093958;28;20186;-57
2021/05/07 01:04:15;;;;;;;6.35;2.67;;;4.40;99.90;;;;;;5094688;28;20189;-57
2021/05/07 01:06:42;;;;;;;4.85;2.80;;;4.40;99.90;;;;;;5093651;28;20212;-56
2021/05/07 01:09:08;;;;;;;5.43;2.67;;;4.40;99.90;;;;;;5093266;28;20192;-57
2021/05/07 01:11:34;;;;;;;4.03;2.35;;;4.30;99.90;;;;;;5093664;28;20192;-56
2021/05/07 01:14:00;;;;;;;4.03;2.50;;;4.30;99.90;;;;;;5092666;28;20184;-57
2021/05/07 01:16:28;;;;;;;5.75;2.80;;;4.30;99.90;;;;;;5093537;28;20193;-57
2021/05/07 01:18:54;;;;;;;7.95;3.42;;;4.30;99.90;;;;;;5094261;28;20180;-55
2021/05/07 01:21:21;;;;;;;7.03;3.22;;;4.30;99.90;;;;;;5094733;28;20189;-57
2021/05/07 01:23:47;;;;;;;4.40;2.47;;;4.30;99.90;;;;;;5094278;28;20181;-56
2021/05/07 01:26:13;;;;;;;10.35;5.60;;;4.30;99.90;;;;;;5093191;28;20570;-56
2021/05/07 01:28:39;;;;;;;8.82;5.50;;;4.30;99.90;;;;;;5093640;28;20178;-56
2021/05/07 01:31:05;;;;;;;6.80;3.67;;;4.20;99.90;;;;;;5094392;28;20177;-56
2021/05/07 01:33:31;;;;;;;6.85;3.30;;;4.20;99.90;;;;;;5094214;28;20185;-55
2021/05/07 01:35:57;;;;;;;6.05;2.90;;;4.20;99.90;;;;;;5093822;28;20204;-54
2021/05/07 01:38:23;;;;;;;8.57;3.25;;;4.20;99.90;;;;;;5093026;28;20180;-55
2021/05/07 01:40:50;;;;;;;7.57;3.17;;;4.20;99.90;;;;;;5092023;28;20177;-56
2021/05/07 01:43:17;;;;;;;8.10;4.72;;;4.20;99.90;;;;;;5093748;28;20177;-56
2021/05/07 01:45:44;;;;;;;6.55;3.35;;;4.10;99.90;;;;;;5091688;28;20630;-57
2021/05/07 01:48:10;;;;;;;5.35;3.13;;;4.10;99.90;;;;;;5091795;28;20213;-56
2021/05/07 01:50:38;;;;;;;5.03;2.90;;;4.10;99.90;;;;;;5094062;28;20688;-56
2021/05/07 01:53:05;;;;;;;8.07;3.53;;;4.10;99.90;;;;;;5093686;28;20182;-57
2021/05/07 01:55:35;;;;;;;8.77;3.40;;;4.00;99.90;;;;;;5093552;28;20539;-55
2021/05/07 01:58:03;;;;;;;9.50;3.08;;;4.00;99.90;;;;;;5092848;28;20531;-56
2021/05/07 02:00:29;;;;;;;8.80;3.30;;;4.00;99.90;;;;;;5092902;28;20225;-56
2021/05/07 02:02:56;;;;;;;8.52;5.38;;;4.00;99.90;;;;;;5093419;28;20175;-56
2021/05/07 02:05:23;;;;;;;6.68;3.03;;;4.00;99.90;;;;;;5093262;28;20162;-57
2021/05/07 02:07:50;;;;;;;4.97;3.00;;;3.90;99.90;;;;;;5075281;28;20193;-57
2021/05/07 02:10:18;;;;;;;5.20;3.25;;;3.90;99.90;;;;;;5092598;28;20181;-52
2021/05/07 02:12:44;;;;;;;6.10;3.40;;;3.90;99.90;;;;;;5091200;28;20197;-56
2021/05/07 02:15:12;;;;;;;6.93;3.25;;;3.80;99.90;;;;;;5092231;28;20172;-55
2021/05/07 02:17:38;;;;;;;9.70;4.90;;;3.80;99.90;;;;;;5093048;28;20192;-56
2021/05/07 02:20:06;;;;;;;6.20;2.92;;;3.80;99.90;;;;;;5091160;28;20702;-56
2021/05/07 02:22:32;;;;;;;5.38;3.05;;;3.80;99.90;;;;;;5093033;28;20198;-56
2021/05/07 02:24:58;;;;;;;9.93;3.25;;;3.70;99.90;;;;;;5092342;28;20189;-55
2021/05/07 02:27:24;;;;;;;6.38;3.15;;;3.70;99.90;;;;;;5093205;28;20197;-56
2021/05/07 02:29:50;;;;;;;7.00;3.33;;;3.70;99.90;;;;;;5092295;28;20186;-56
2021/05/07 02:32:17;;;;;;;9.40;3.40;;;3.70;99.90;;;;;;5092011;28;20188;-56
2021/05/07 02:34:43;;;;;;;6.93;3.20;;;3.70;99.90;;;;;;5092272;28;20213;-56
2021/05/07 02:37:09;;;;;;;5.72;3.03;;;3.70;99.90;;;;;;5092948;28;20230;-56
2021/05/07 02:39:35;;;;;;;7.90;3.28;;;3.70;99.90;;;;;;5092781;28;20540;-55
2021/05/07 02:42:01;;;;;;;8.73;3.42;;;3.60;99.90;;;;;;5091791;28;20192;-55
2021/05/07 02:44:28;;;;;;;12.88;5.65;;;3.60;99.90;;;;;;5092856;28;20176;-55
2021/05/07 02:46:54;;;;;;;4.88;2.95;;;3.60;99.90;;;;;;5092492;28;20209;-56
2021/05/07 02:49:20;;;;;;;4.18;2.95;;;3.60;99.90;;;;;;5090958;28;20169;-55
2021/05/07 02:51:47;;;;;;;8.65;3.70;;;3.50;99.90;;;;;;5089176;28;20180;-52
2021/05/07 02:54:13;;;;;;;11.50;3.72;;;3.60;99.90;;;;;;5092173;28;20176;-56
2021/05/07 02:56:39;;;;;;;12.98;3.95;;;3.50;99.90;;;;;;5091657;28;20786;-56
2021/05/07 02:59:05;;;;;;;14.18;4.00;;;3.50;99.90;;;;;;5092697;28;20180;-56
2021/05/07 03:01:31;;;;;;;6.05;3.22;;;3.50;99.90;;;;;;5091907;28;20181;-55
2021/05/07 03:03:57;;;;;;;9.43;3.38;;;3.50;99.90;;;;;;5091577;28;20184;-55
2021/05/07 03:06:23;;;;;;;9.23;3.17;;;3.50;99.90;;;;;;5092289;28;20178;-56
2021/05/07 03:08:49;;;;;;;11.32;3.92;;;3.50;99.90;;;;;;5090806;28;20197;-56
2021/05/07 03:11:15;;;;;;;5.45;2.80;;;3.50;99.90;;;;;;5092074;28;20617;-55
2021/05/07 03:13:41;;;;;;;11.45;3.75;;;3.50;99.90;;;;;;5091372;28;20177;-56
2021/05/07 03:16:07;;;;;;;8.02;3.60;;;3.40;99.90;;;;;;5092048;28;20656;-55
2021/05/07 03:18:33;;;;;;;13.10;5.70;;;3.50;99.90;;;;;;5092120;28;20185;-55
2021/05/07 03:20:59;;;;;;;14.80;5.97;;;3.40;99.90;;;;;;5091450;28;20707;-55
2021/05/07 03:23:26;;;;;;;16.23;5.72;;;3.40;99.90;;;;;;5091729;28;20173;-56
2021/05/07 03:25:52;;;;;;;9.07;5.90;;;3.50;99.90;;;;;;5091519;28;20188;-56
2021/05/07 03:28:18;;;;;;;11.48;5.70;;;3.50;99.90;;;;;;5091943;28;20585;-57
2021/05/07 03:30:44;;;;;;;10.80;5.80;;;3.50;99.90;;;;;;5091644;28;20177;-55
2021/05/07 03:33:10;;;;;;;9.75;3.05;;;3.50;99.90;;;;;;5088176;28;20189;-56
2021/05/07 03:35:36;;;;;;;15.15;3.25;;;3.50;99.90;;;;;;5091115;28;20224;-56
2021/05/07 03:38:03;;;;;;;7.45;3.55;;;3.50;99.90;;;;;;5091824;28;20170;-57
2021/05/07 03:40:29;;;;;;;6.35;3.40;;;3.50;99.90;;;;;;5091075;28;20688;-56
2021/05/07 03:42:55;;;;;;;6.43;3.63;;;3.50;99.90;;;;;;5091033;28;20210;-57
2021/05/07 03:45:21;;;;;;;6.15;3.10;;;3.60;99.90;;;;;;5090924;28;20557;-57
2021/05/07 03:47:47;;;;;;;10.98;3.65;;;3.70;99.90;;;;;;5091608;28;20213;-56
2021/05/07 03:50:13;;;;;;;11.43;3.40;;;3.60;99.90;;;;;;5089997;28;20177;-56
2021/05/07 03:52:41;;;;;;;12.05;3.90;;;3.70;99.90;;;;;;5088052;28;20204;-56
2021/05/07 03:55:08;;;;;;;7.13;3.35;;;3.80;99.90;;;;;;5089294;28;20177;-57
2021/05/07 03:57:34;;;;;;;13.35;4.03;;;3.90;99.90;;;;;;5091474;28;20182;-58
2021/05/07 04:00:00;;;;;;;8.88;3.67;;;4.00;99.90;;;;;;5092015;28;20188;-56
2021/05/07 04:02:26;;;;;;;14.25;5.80;;;4.00;99.90;;;;;;5092376;28;20177;-56
2021/05/07 04:04:53;;;;;;;9.75;5.20;;;4.10;99.90;;;;;;5095833;28;20185;-57
2021/05/07 04:07:20;;;;;;;6.57;3.20;;;4.10;99.90;;;;;;5077345;28;20197;-56
2021/05/07 04:10:14;;;;;;;8.82;3.67;;;4.20;99.90;;;;;;5096046;28;20173;-56
2021/05/07 04:15:15;;;;;;;6.88;3.67;;;4.30;99.90;;;;;;5102399;28;20184;-57
2021/05/07 04:17:42;;;;;;;12.98;3.75;;;4.30;99.90;;;;;;5094674;28;20181;-57
2021/05/07 04:20:08;;;;;;;5.57;2.83;;;4.40;99.90;;;;;;5094197;28;20165;-57
2021/05/07 04:22:34;;;;;;;5.68;3.33;;;4.40;99.90;;;;;;5095525;28;20700;-57
2021/05/07 04:25:00;;;;;;;15.50;4.07;;;4.50;99.90;;;;;;5095494;28;20166;-57
2021/05/07 04:27:26;;;;;;;12.70;3.28;;;4.50;99.90;;;;;;5094976;28;20209;-58
2021/05/07 04:29:53;;;;;;;6.43;3.47;;;4.60;99.90;;;;;;5095480;28;20169;-57
2021/05/07 04:32:19;;;;;;;10.55;3.53;;;4.70;99.90;;;;;;5094715;28;20185;-57
2021/05/07 04:34:45;;;;;;;7.50;3.72;;;4.80;99.90;;;;;;5095199;28;20224;-58
2021/05/07 04:37:11;;;;;;;10.60;4.03;;;4.80;99.90;;;;;;5095415;28;20165;-57
2021/05/07 04:39:37;;;;;;;5.95;3.55;;;4.90;99.90;;;;;;5093493;28;20181;-57
2021/05/07 04:42:04;;;;;;;10.48;4.25;;;4.90;99.90;;;;;;5094981;28;20190;-58
2021/05/07 04:44:31;;;;;;;6.93;4.07;;;4.90;99.90;;;;;;5095759;28;20588;-58
2021/05/07 04:46:59;;;;;;;8.50;4.43;;;5.00;99.90;;;;;;5094486;28;20197;-58
2021/05/07 04:49:26;;;;;;;6.72;3.60;;;5.00;99.90;;;;;;5094096;28;20715;-58
2021/05/07 04:51:52;;;;;;;15.73;3.63;;;5.00;99.90;;;;;;5094359;28;20626;-56
2021/05/07 04:54:18;;;;;;;8.32;3.72;;;5.00;99.90;;;;;;5094463;28;20188;-55
2021/05/07 04:56:45;;;;;;;9.52;4.07;;;5.10;99.90;;;;;;5094990;28;20236;-57
2021/05/07 04:59:11;;;;;;;5.93;3.45;;;5.10;99.90;;;;;;5094409;28;20173;-56
2021/05/07 05:01:37;;;;;;;9.57;4.78;;;5.10;99.90;;;;;;5094481;28;20200;-56
2021/05/07 05:04:04;;;;;;;8.57;3.90;;;5.10;99.90;;;;;;5094949;28;20181;-56
2021/05/07 05:06:30;;;;;;;11.38;3.75;;;5.20;99.90;;;;;;5094961;28;20177;-56
2021/05/07 05:08:56;;;;;;;6.25;3.72;;;5.20;99.90;;;;;;5094513;28;20220;-57
2021/05/07 05:11:22;;;;;;;7.63;3.60;;;5.20;99.90;;;;;;5094012;28;20200;-56
2021/05/07 05:13:48;;;;;;;6.47;4.03;;;5.30;99.90;;;;;;5094663;28;20184;-56
2021/05/07 05:16:14;;;;;;;13.00;3.95;;;5.30;99.90;;;;;;5094093;28;20169;-56
2021/05/07 05:18:40;;;;;;;9.38;3.60;;;5.30;99.90;;;;;;5094831;28;20173;-56
2021/05/07 05:21:08;;;;;;;6.47;3.38;;;5.30;99.90;;;;;;5093696;28;20545;-56
2021/05/07 05:23:34;;;;;;;10.75;3.75;;;5.40;99.90;;;;;;5100201;28;20615;-56
2021/05/07 05:26:00;;;;;;;4.85;3.03;;;5.40;99.90;;;;;;5100698;28;20181;-55
2021/05/07 05:28:26;;;;;;;13.02;3.83;;;5.50;99.90;;;;;;5099552;28;20201;-55
2021/05/07 05:30:53;;;;;;;10.60;3.72;;;5.50;99.90;;;;;;5103004;28;20177;-58
2021/05/07 05:33:19;;;;;;;14.80;3.92;;;5.60;99.90;;;;;;5099155;28;20181;-57
2021/05/07 05:35:45;;;;;;;9.05;3.60;;;5.60;99.90;;;;;;5097663;28;20209;-56
2021/05/07 05:38:12;;;;;;;13.55;3.45;;;5.60;99.90;;;;;;5101605;28;20177;-56
2021/05/07 05:40:39;;;;;;;8.02;3.83;;;5.70;99.90;;;;;;5102490;28;20618;-58
2021/05/07 05:43:05;;;;;;;8.50;3.85;;;5.70;99.90;;;;;;5099156;28;20197;-58
2021/05/07 05:45:32;;;;;;;11.93;4.07;;;5.80;99.90;;;;;;5093837;28;20549;-56
2021/05/07 05:48:05;;;;;;;11.52;3.85;;;5.90;99.90;;;;;;5093418;28;20208;-57
2021/05/07 05:50:37;;;;;;;6.35;3.70;;;5.90;99.90;;;;;;5094009;28;20169;-57
2021/05/07 05:53:04;;;;;;;7.25;4.57;;;6.00;99.90;;;;;;5092467;28;20181;-57
2021/05/07 05:55:30;;;;;;;6.55;3.75;;;6.00;99.90;;;;;;5092743;28;20188;-57
2021/05/07 05:57:56;;;;;;;12.82;4.50;;;6.00;99.90;;;;;;5093563;28;20177;-58
2021/05/07 06:00:22;;;;;;;5.40;4.05;;;6.10;99.90;;;;;;5093219;28;20173;-57
2021/05/07 06:02:49;;;;;;;10.63;3.95;;;6.10;99.90;;;;;;5093446;28;20204;-56
2021/05/07 06:05:15;;;;;;;9.88;3.97;;;6.20;99.90;;;;;;5092793;28;20169;-57
2021/05/07 06:07:41;;;;;;;7.30;4.47;;;6.30;99.90;;;;;;5093236;28;20212;-55
2021/05/07 06:10:12;;;;;;;6.40;3.75;;;6.40;99.90;;;;;;5091519;28;20189;-55
2021/05/07 06:12:38;;;;;;;11.52;4.35;;;6.50;99.90;;;;;;5093564;28;20185;-57
2021/05/07 06:15:05;;;;;;;5.70;4.40;;;6.80;99.90;;;;;;5091836;28;20546;-57
2021/05/07 06:17:33;;;;;;;10.20;4.57;;;6.80;99.90;;;;;;5093329;28;20173;-57
2021/05/07 06:20:02;;;;;;;7.13;4.22;;;6.90;99.90;;;;;;5092912;28;20174;-57
2021/05/07 06:22:29;;;;;;;9.55;4.28;;;7.00;99.90;;;;;;5091569;28;20555;-57
2021/05/07 06:24:55;;;;;;;7.63;4.13;;;7.10;99.90;;;;;;5091955;28;20184;-57
2021/05/07 06:27:21;;;;;;;6.03;3.90;;;7.20;99.90;;;;;;5091670;28;20684;-57
2021/05/07 06:29:48;;;;;;;6.32;4.05;;;7.40;99.90;;;;;;5092766;28;20550;-56
2021/05/07 06:32:14;;;;;;;6.70;4.03;;;7.30;99.90;;;;;;5094710;28;20169;-57
2021/05/07 06:34:40;;;;;;;6.57;3.97;;;7.30;99.90;;;;;;5092166;28;20228;-57
2021/05/07 06:37:06;;;;;;;6.47;4.32;;;7.10;99.90;;;;;;5094364;28;20533;-57
2021/05/07 06:39:32;;;;;;;7.07;3.80;;;7.10;99.90;;;;;;5091994;28;20182;-57
2021/05/07 06:41:58;;;;;;;7.82;4.40;;;6.80;99.90;;;;;;5092414;28;20208;-57
2021/05/07 06:44:27;;;;;;;6.05;4.03;;;6.90;99.90;;;;;;5093124;28;20204;-56
2021/05/07 06:46:54;;;;;;;8.48;3.78;;;7.00;99.90;;;;;;5091865;28;20173;-57
2021/05/07 06:49:23;;;;;;;7.30;3.90;;;6.90;99.90;;;;;;5097667;28;20208;-56
2021/05/07 06:51:50;;;;;;;5.85;4.10;;;6.90;99.90;;;;;;5101175;28;20165;-57
2021/05/07 06:54:16;;;;;;;9.75;4.72;;;7.00;99.90;;;;;;5098927;28;20641;-57
2021/05/07 06:56:42;;;;;;;12.68;4.50;;;7.10;99.90;;;;;;5096960;28;20185;-56
2021/05/07 06:59:08;;;;;;;9.30;4.00;;;7.10;99.90;;;;;;5101468;28;20179;-58
2021/05/07 07:01:37;;;;;;;8.70;4.10;;;7.10;99.90;;;;;;5094274;27;20189;-57
2021/05/07 07:04:04;;;;;;;5.35;3.40;;;7.10;99.90;;;;;;5091832;28;20633;-58
2021/05/07 07:06:30;;;;;;;10.52;4.57;;;7.10;99.90;;;;;;5092107;28;20201;-56
2021/05/07 07:08:56;;;;;;;11.07;3.88;;;7.10;99.90;;;;;;5096197;28;20673;-57
2021/05/07 07:11:22;;;;;;;7.05;4.63;;;7.40;99.90;;;;;;5100808;28;20173;-56
2021/05/07 07:13:48;;;;;;;6.55;4.18;;;7.60;99.90;;;;;;5101161;28;20199;-57
2021/05/07 07:16:15;;;;;;;6.35;3.97;;;7.70;99.90;;;;;;5102555;28;20184;-57
2021/05/07 07:18:41;;;;;;;6.82;4.28;;;7.70;99.90;;;;;;5102372;28;20678;-57
2021/05/07 07:21:08;;;;;;;9.30;3.67;;;7.60;99.90;;;;;;5104563;28;20212;-56
2021/05/07 07:23:35;;;;;;;8.52;3.92;;;7.60;99.90;;;;;;5101288;28;20174;-56
2021/05/07 07:26:02;;;;;;;8.10;3.75;;;7.50;99.90;;;;;;5102669;28;20168;-57
2021/05/07 07:28:28;;;;;;;6.93;4.47;;;7.40;99.90;;;;;;5099736;28;20204;-57
2021/05/07 07:30:54;;;;;;;14.10;5.75;;;7.40;99.90;;;;;;5102887;28;20191;-57
2021/05/07 07:33:20;;;;;;;4.70;3.15;;;7.40;99.90;;;;;;5092057;28;20185;-56
2021/05/07 07:35:46;;;;;;;5.10;3.20;;;7.60;99.90;;;;;;5094639;28;20547;-56
2021/05/07 07:38:12;;;;;;;5.40;3.10;;;7.70;99.90;;;;;;5091279;28;20192;-56
2021/05/07 07:40:38;;;;;;;3.88;2.95;;;7.70;99.90;;;;;;5090195;28;20186;-55
2021/05/07 07:43:05;;;;;;;6.75;3.35;;;7.60;99.90;;;;;;5092095;28;20208;-63
2021/05/07 07:45:31;;;;;;;7.45;3.47;;;7.60;99.90;;;;;;5092021;28;20660;-56
2021/05/07 07:47:57;;;;;;;5.22;3.05;;;7.70;99.90;;;;;;5090162;28;20201;-57
2021/05/07 07:50:23;;;;;;;4.55;3.20;;;7.70;99.90;;;;;;5090953;28;20173;-57
2021/05/07 07:52:49;;;;;;;4.00;2.95;;;7.90;99.90;;;;;;5099764;28;20168;-56
2021/05/07 07:55:15;;;;;;;7.05;3.38;;;7.90;99.90;;;;;;5097444;28;20636;-57
2021/05/07 07:57:42;;;;;;;8.95;3.40;;;8.00;99.90;;;;;;5100416;28;20178;-57
2021/05/07 08:00:08;;;;;;;8.73;3.72;;;8.20;99.90;;;;;;5096454;28;20637;-58
2021/05/07 08:02:35;;;;;;;6.15;3.50;;;8.40;99.90;;;;;;5090773;28;20182;-57
2021/05/07 08:05:01;;;;;;;5.20;3.28;;;8.70;99.90;;;;;;5091614;28;20185;-56
2021/05/07 08:07:27;;;;;;;3.67;3.17;;;8.80;99.90;;;;;;5091315;28;20170;-58
2021/05/07 08:09:53;;;;;;;7.45;3.40;;;8.90;99.90;;;;;;5091170;28;20196;-58
2021/05/07 08:12:19;;;;;;;7.32;3.10;;;9.00;99.90;;;;;;5089546;28;20181;-57
2021/05/07 08:14:45;;;;;;;14.45;3.58;;;9.00;99.90;;;;;;5091204;28;20204;-58
2021/05/07 08:17:11;;;;;;;12.88;5.32;;;9.20;99.90;;;;;;5091597;28;20173;-57
2021/05/07 08:19:37;;;;;;;6.18;3.50;;;9.30;99.90;;;;;;5091391;28;20637;-56
2021/05/07 08:22:04;;;;;;;6.35;3.92;;;9.40;99.90;;;;;;5090548;28;20216;-57
2021/05/07 08:24:30;;;;;;;8.45;3.70;;;9.40;99.90;;;;;;5091108;28;20177;-58
2021/05/07 08:26:59;;;;;;;8.15;3.70;;;9.50;99.90;;;;;;5091240;28;20189;-57
2021/05/07 08:29:26;;;;;;;8.32;3.08;;;9.70;99.90;;;;;;5090848;28;20201;-57
2021/05/07 08:31:52;;;;;;;7.55;3.53;;;9.80;99.90;;;;;;5091524;28;20169;-57
2021/05/07 08:34:20;;;;;;;4.72;3.17;;;9.70;99.90;;;;;;5090282;28;20216;-57
2021/05/07 08:36:47;;;;;;;8.07;3.38;;;9.90;99.90;;;;;;5091197;28;20181;-57
2021/05/07 08:39:13;;;;;;;6.28;4.15;;;9.80;99.90;;;;;;5082732;28;20189;-56
2021/05/07 08:41:42;;;;;;;23.23;4.40;;;10.60;99.90;;;;;;5091456;28;20626;-55
2021/05/07 08:44:08;;;;;;;8.75;3.78;;;11.40;99.90;;;;;;5090225;28;20188;-57
2021/05/07 08:46:35;;;;;;;15.73;3.88;;;11.60;99.90;;;;;;5088500;28;20177;-56
2021/05/07 08:49:01;;;;;;;7.75;3.83;;;11.70;99.90;;;;;;5069165;28;20213;-52
2021/05/07 08:51:27;;;;;;;;;;;12.20;99.90;;;;;;5075721;28;20181;-57
2021/05/07 08:53:53;;;;;;;;;;;13.60;99.90;;;;;;5091379;28;19914;-56
2021/05/07 08:56:19;;;;;;;;;;;14.70;99.90;;;;;;5094191;28;20343;-57
2021/05/07 08:58:45;;;;;;;;;;;15.70;99.90;;;;;;5094357;28;19919;-57
2021/05/07 09:01:11;;;;;;;;;;;16.30;99.90;;;;;;5094639;28;19915;-56
2021/05/07 09:03:47;;;;;;;;;;;16.40;99.90;;;;;;5094185;28;19908;-58
2021/05/07 09:06:13;;;;;;;;;;;17.10;99.90;;;;;;5093495;28;19915;-58
2021/05/07 09:08:39;;;;;;;;;;;16.60;99.90;;;;;;5094017;28;20295;-58
2021/05/07 09:11:05;;;;;;;;;;;16.00;99.90;;;;;;5093826;28;19916;-57
2021/05/07 09:13:31;;;;;;;;;;;14.60;99.90;;;;;;5093793;28;19919;-57
2021/05/07 09:16:02;;;;;;;;;;;13.90;99.90;;;;;;5091601;28;19969;-57
2021/05/07 09:18:30;;;;;;;;;;;13.10;99.90;;;;;;5093816;28;20353;-56
2021/05/07 09:20:56;;;;;;;;;;;12.40;99.90;;;;;;5093860;28;19908;-57
2021/05/07 09:23:22;;;;;;;;;;;11.80;99.90;;;;;;5091398;28;19908;-57
2021/05/07 09:25:52;;;;;;;;;;;11.30;99.90;;;;;;5090893;28;19999;-57
2021/05/07 09:28:18;;;;;;;;;;;11.00;99.90;;;;;;5089424;28;19916;-57
2021/05/07 09:30:44;;;;;;;;;;;10.80;99.90;;;;;;5093660;28;19953;-56
2021/05/07 09:33:11;;;;;;;;;;;10.70;99.90;;;;;;5093956;28;19915;-55
2021/05/07 09:35:37;;;;;;;;;;;10.80;99.90;;;;;;5093083;28;19981;-56
2021/05/07 09:38:07;;;;;;;;;;;10.80;99.90;;;;;;5092988;28;19915;-57
2021/05/07 09:40:33;;;;;;;;;;;10.80;99.90;;;;;;5093095;28;19927;-57
2021/05/07 09:43:06;;;;;;;;;;;10.60;99.90;;;;;;5093717;28;19919;-56
2021/05/07 09:45:32;;;;;;;;;;;10.50;99.90;;;;;;5096905;28;20458;-58
2021/05/07 09:47:58;;;;;;;;;;;10.50;99.90;;;;;;5093281;28;19915;-59
2021/05/07 09:50:32;;;;;;;;;;;10.50;99.90;;;;;;5093097;28;19919;-60
2021/05/07 09:53:08;;;;;;;;;;;11.10;99.90;;;;;;5093719;28;19908;-59
2021/05/07 09:55:34;;;;;;;;;;;12.10;99.90;;;;;;5096045;28;19908;-60
2021/05/07 09:58:00;;;;;;;;;;;13.40;99.90;;;;;;5092792;28;19953;-61
2021/05/07 10:00:26;;;;;;;;;;;14.80;99.90;;;;;;5093131;28;21538;-61
2021/05/07 10:02:52;;;;;;;;;;;16.40;99.90;;;;;;5093316;28;19930;-60
2021/05/07 10:05:18;;;;;;;;;;;17.10;99.90;;;;;;5095251;28;19915;-60
2021/05/07 10:07:44;;;;;;;;;;;17.50;99.90;;;;;;5092368;28;19999;-60
2021/05/07 10:10:10;;;;;;;;;;;18.00;99.90;;;;;;5092665;28;19923;-60
2021/05/07 10:12:36;;;;;;;;;;;19.00;99.00;;;;;;5093088;28;20022;-60
2021/05/07 10:15:03;;;;;;;;;;;18.40;97.80;;;;;;5097882;28;19908;-59
2021/05/07 10:17:29;;;;;;;;;;;15.30;99.70;;;;;;5088149;28;19907;-59
2021/05/07 10:19:55;;;;;;;;;;;13.50;99.90;;;;;;5091825;28;19912;-59
2021/05/07 10:22:26;;;;;;;3.55;1.88;;;12.40;99.90;;;;;;5091243;28;20384;-59
2021/05/07 10:24:53;;;;;;;3.20;1.90;;;11.30;99.90;;;;;;5099336;28;20172;-60
2021/05/07 10:27:21;;;;;;;2.28;1.65;;;10.40;99.90;;;;;;5091886;28;20168;-58
2021/05/07 10:29:54;;;;;;;4.18;2.13;;;9.60;99.90;;;;;;5091904;28;20646;-59
2021/05/07 10:32:34;;;;;;;2.15;1.58;;;9.10;99.90;;;;;;5081697;28;20192;-59
2021/05/07 10:35:00;;;;;;;3.60;2.17;;;8.50;99.90;;;;;;5091546;28;20231;-59
2021/05/07 10:37:37;;;;;;;4.65;2.30;;;8.00;99.90;;;;;;5092737;28;20180;-59
2021/05/07 10:40:04;;;;;;;3.75;2.38;;;7.40;99.90;;;;;;5090627;28;20184;-59
2021/05/07 10:42:30;;;;;;;3.08;2.33;;;7.10;99.90;;;;;;5090511;28;20211;-60
2021/05/07 10:44:56;;;;;;;7.90;2.75;;;6.70;99.90;;;;;;5092825;28;20182;-60
2021/05/07 10:47:42;;;;;;;4.43;2.92;;;6.50;99.90;;;;;;5097833;28;20173;-60
2021/05/07 10:50:13;;;;;;;4.75;3.22;;;6.30;99.90;;;;;;5091838;28;20721;-60
2021/05/07 10:52:40;;;;;;;10.00;3.50;;;6.30;99.90;;;;;;5092813;28;20554;-60
2021/05/07 10:55:07;;;;;;;6.05;3.65;;;6.30;99.90;;;;;;5093206;28;20188;-60
2021/05/07 10:57:36;;;;;;;7.18;3.92;;;6.30;99.90;;;;;;5092167;28;20173;-60
2021/05/07 11:00:13;;;;;;;8.20;4.55;;;6.40;99.90;;;;;;5092618;28;20185;-60
2021/05/07 11:02:46;;;;;;;7.25;5.22;;;6.60;99.90;;;;;;5091157;28;20176;-60
2021/05/07 11:05:12;;;;;;;7.53;5.07;;;6.70;99.90;;;;;;5092400;28;20173;-60
2021/05/07 11:07:49;;;;;;;8.25;3.85;;;6.90;99.90;;;;;;5092143;28;20184;-60
2021/05/07 11:10:16;;;;;;;5.30;3.30;;;7.20;99.90;;;;;;5089534;28;20204;-61
2021/05/07 11:12:42;;;;;;;6.88;3.53;;;7.50;99.90;;;;;;5090451;28;20206;-61
2021/05/07 11:15:17;;;;;;;9.32;3.22;;;7.70;99.90;;;;;;5092400;28;20169;-61
2021/05/07 11:17:44;;;;;;;8.70;4.57;;;7.80;99.90;;;;;;5091790;28;20176;-61
2021/05/07 11:20:10;;;;;;;4.85;3.08;;;7.90;99.90;;;;;;5090986;28;20169;-61
2021/05/07 11:22:39;;;;;;;7.97;3.55;;;8.00;99.90;;;;;;5090002;28;20200;-60
2021/05/07 11:25:07;;;;;;;6.40;3.88;;;8.10;99.90;;;;;;5091531;28;20883;-60
2021/05/07 11:27:33;;;;;;;11.02;4.10;;;8.30;99.90;;;;;;5091390;28;20645;-60
2021/05/07 11:29:59;;;;;;;7.43;4.18;;;8.40;99.90;;;;;;5090713;28;20208;-60
2021/05/07 11:32:25;;;;;;;7.30;4.15;;;8.50;99.90;;;;;;5091354;28;20551;-59
2021/05/07 11:35:01;;;;;;;7.00;4.00;;;8.60;99.90;;;;;;5090528;28;20240;-60
2021/05/07 11:37:28;;;;;;;8.90;4.63;;;8.70;99.90;;;;;;5090640;28;20213;-59
2021/05/07 11:39:58;;;;;;;6.72;3.92;;;8.80;99.90;;;;;;5089894;28;20177;-59
2021/05/07 11:42:33;;;;;;;8.50;4.80;;;8.70;99.90;;;;;;5090503;28;20173;-59
2021/05/07 11:45:01;;;;;;;7.38;4.05;;;9.00;99.90;;;;;;5089572;28;20497;-60
2021/05/07 11:47:30;;;;;;;5.88;3.78;;;9.10;99.90;;;;;;5091478;28;20240;-60
2021/05/07 11:49:57;;;;;;;4.90;3.35;;;9.00;99.90;;;;;;5090804;28;20200;-60
2021/05/07 11:52:38;;;;;;;5.47;3.05;;;9.10;99.90;;;;;;5091325;28;20204;-60
2021/05/07 11:55:06;;;;;;;3.92;3.00;;;9.30;99.90;;;;;;5089917;28;20177;-60
2021/05/07 11:57:33;;;;;;;5.97;2.70;;;8.70;99.90;;;;;;5090662;28;20180;-60
2021/05/07 12:00:00;;;;;;;4.82;2.60;;;8.60;99.90;;;;;;5091382;28;20184;-60
2021/05/07 12:02:27;;;;;;;2.97;2.40;;;8.30;99.90;;;;;;5091570;28;20562;-60
2021/05/07 12:04:55;;;;;;;2.90;2.40;;;8.40;99.90;;;;;;5092836;28;20170;-60
2021/05/07 12:07:33;;;;;;;8.07;2.35;;;8.30;99.90;;;;;;5102001;28;20645;-59
2021/05/07 12:09:59;;;;;;;2.80;2.20;;;8.20;99.90;;;;;;5096739;28;20573;-60
2021/05/07 12:12:28;;;;;;;8.10;2.50;;;8.20;99.90;;;;;;5096733;28;20180;-60
2021/05/07 12:15:06;;;;;;;4.50;2.40;;;8.10;99.90;;;;;;5096313;28;20189;-59
2021/05/07 12:17:45;;;;;;;3.97;2.30;;;8.20;99.90;;;;;;5097560;28;20632;-59
2021/05/07 12:20:22;;;;;;;4.97;2.55;;;8.40;99.90;;;;;;5097257;28;20216;-59
2021/05/07 12:22:52;;;;;;;4.88;2.50;;;8.60;99.90;;;;;;5098769;28;20640;-60
2021/05/07 12:25:19;;;;;;;5.90;3.20;;;8.70;99.90;;;;;;5099420;28;20175;-60
2021/05/07 12:27:46;;;;;;;6.38;3.13;;;8.90;99.90;;;;;;5096792;28;20177;-60
2021/05/07 12:30:26;;;;;;;6.20;3.53;;;9.00;99.90;;;;;;5093874;28;20208;-59
2021/05/07 12:33:06;;;;;;;5.65;3.15;;;9.20;99.90;;;;;;5095018;28;20172;-59
2021/05/07 12:35:45;;;;;;;3.45;2.70;;;9.40;99.90;;;;;;5093636;28;20215;-59
2021/05/07 12:38:36;;;;;;;5.63;2.38;;;9.60;99.90;;;;;;5094081;28;20181;-60
2021/05/07 12:41:07;;;;;;;3.95;2.40;;;9.50;99.90;;;;;;5099776;28;20216;-59
2021/05/07 12:43:44;;;;;;;6.38;2.83;;;9.60;99.90;;;;;;5094069;28;20660;-59
2021/05/07 12:46:11;;;;;;;4.28;2.47;;;9.60;99.90;;;;;;5093812;28;20176;-59
2021/05/07 12:48:38;;;;;;;4.13;2.78;;;9.50;99.90;;;;;;5088731;28;20196;-58
2021/05/07 12:51:09;;;;;;;5.13;2.50;;;9.40;99.90;;;;;;5098713;28;20188;-59
2021/05/07 12:53:37;;;;;;;4.25;2.65;;;9.40;99.90;;;;;;5095034;28;20165;-59
2021/05/07 12:56:03;;;;;;;3.50;2.63;;;9.50;99.90;;;;;;5093257;28;20189;-59
2021/05/07 12:58:29;;;;;;;4.13;2.05;;;9.60;99.90;;;;;;5100556;28;20181;-59
2021/05/07 13:00:56;;;;;;;6.60;2.40;;;9.70;99.90;;;;;;5094161;28;20192;-59
2021/05/07 13:03:24;;;;;;;4.47;3.05;;;9.90;99.90;;;;;;5094636;28;20189;-59
2021/05/07 13:05:50;;;;;;;3.67;2.45;;;10.00;99.90;;;;;;5094506;28;20173;-59